Latest Weather Observations for Jabiru

IDD60801

Issued at 9:51 am CST Monday 16 September 2019 (issued every 10 minutes, with the page automatically refreshed every 10 minutes)

About weather observations | Map of weather stations | Latest weather observations for NT | Other Formats
Station Details ID: 014198 Name: JABIRU AIRPORT Lat: -12.66 Lon: 132.89 Height: 26.5 m
Data from the previous 72 hours. | See also: Recent months at Jabiru
Date/Time
CST
Temp
°C
App
Temp
°C
Dew
Point
°C
Rel
Hum
%
Delta-T
°C
Wind Press
QNH
hPa
Press
MSL
hPa
Rain since
9am
mm
Dir  Spd
km/h
Gust
km/h
Spd
kts
Gust
kts
16/09:30am 26.3 26.5 14.7 48 7.0 SSE 7 13 4 7 1016.9 1016.7 0.0
16/09:00am 24.2 25.6 15.4 58 5.3 E 2 7 1 4 1016.8 1016.6 -
16/08:30am 22.0 23.4 16.5 71 3.3 SSW 4 9 2 5 1016.8 1016.6 -
16/08:00am 20.7 21.5 16.3 76 2.7 SW 7 9 4 5 1016.7 1016.5 -
16/07:30am 19.5 19.9 15.4 77 2.4 WSW 7 9 4 5 1016.5 1016.3 -
16/07:00am 19.3 19.4 15.4 78 2.3 SW 9 11 5 6 1016.2 1016.0 -
16/06:30am - - - - - - - - - - 1015.8 1015.6 -
16/06:00am - - - - - - - - - - 1015.7 1015.5 -
16/05:30am - - - - - - - - - - 1015.6 1015.4 -
16/05:00am - - - - - - - - - - 1015.4 1015.2 -
16/04:30am - - - - - - - - - - 1015.0 1014.8 -
16/04:00am - - - - - - - - - - 1014.9 1014.7 -
16/03:30am - - - - - - - - - - 1014.8 1014.6 -
16/03:00am - - - - - - - - - - 1014.8 1014.6 -
16/02:30am - - - - - - - - - - 1015.1 1014.9 -
16/02:00am - - - - - - - - - - 1015.2 1015.0 -
16/01:30am - - - - - - - - - - 1015.2 1015.0 -
16/01:00am - - - - - - - - - - 1015.4 1015.2 -
16/12:30am - - - - - - - - - - 1015.3 1015.1 -
16/12:00am - - - - - - - - - - 1015.1 1014.9 -
 
Date/Time
CST
Temp
°C
App
Temp
°C
Dew
Point
°C
Rel
Hum
%
Delta-T
°C
Wind Press
QNH
hPa
Press
MSL
hPa
Rain since
9am
mm
Dir  Spd
km/h
Gust
km/h
Spd
kts
Gust
kts
15/11:30pm - - - - - - - - - - 1015.1 1014.9 -
15/11:00pm - - - - - - - - - - 1015.2 1015.0 -
15/10:30pm - - - - - - - - - - 1015.1 1014.9 -
15/10:00pm - - - - - - - - - - 1014.9 1014.7 -
15/09:30pm - - - - - - - - - - 1014.8 1014.6 -
15/09:00pm - - - - - - - - - - 1014.4 1014.2 -
15/08:30pm - - - - - - - - - - 1014.1 1013.9 -
15/08:00pm - - - - - - - - - - 1013.8 1013.6 -
15/07:30pm - - - - - - - - - - 1013.3 1013.1 -
15/07:00pm - - - - - - - - - - 1013.1 1012.9 -
15/06:30pm - - - - - - - - - - 1012.7 1012.5 -
15/06:00pm - - - - - - - - - - 1012.4 1012.2 -
15/05:30pm 32.8 30.2 10.8 26 12.8 NE 15 33 8 18 1012.3 1012.1 0.0
15/05:00pm 33.3 30.8 11.2 26 12.9 NE 15 28 8 15 1012.2 1012.0 0.0
15/04:30pm 33.1 29.5 10.4 25 13.1 ESE 20 39 11 21 1012.2 1012.0 0.0
15/04:00pm 33.1 31.0 11.0 26 12.9 E 13 20 7 11 1012.2 1012.0 0.0
15/03:30pm 32.9 28.7 9.7 24 13.2 ENE 22 35 12 19 1012.4 1012.2 0.0
15/03:00pm 33.5 30.2 10.8 25 13.2 ENE 19 30 10 16 1012.4 1012.2 0.0
15/02:30pm 33.4 30.0 10.7 25 13.2 ENE 19 30 10 16 1012.5 1012.3 0.0
15/02:15pm 33.0 28.2 11.5 27 12.6 ENE 28 93 15 50 1012.8 1012.6 0.0
15/02:00pm 32.6 29.2 10.6 26 12.7 E 19 37 10 20 1012.9 1012.7 0.0
15/01:30pm 33.0 28.4 10.9 26 12.9 ENE 26 35 14 19 1013.4 1013.2 0.0
15/01:00pm 31.8 28.5 11.0 28 12.1 E 19 37 10 20 1013.8 1013.6 0.0
15/12:30pm 31.5 27.4 11.3 29 11.7 ESE 24 41 13 22 1014.4 1014.2 0.0
15/12:00pm 31.4 28.1 11.7 29 11.5 E 20 32 11 17 1014.9 1014.7 0.0
15/11:30am 31.0 27.0 11.9 31 11.2 ENE 24 43 13 23 1015.6 1015.4 0.0
15/11:00am 29.9 25.9 11.9 33 10.5 E 24 39 13 21 1016.0 1015.8 0.0
15/10:39am 29.1 24.2 11.2 33 10.3 E 28 46 15 25 1016.4 1016.2 0.0
15/10:30am 29.6 25.5 11.6 33 10.4 E 24 37 13 20 1016.5 1016.3 0.0
15/10:00am 28.1 23.3 11.6 36 9.5 E 28 43 15 23 1016.8 1016.6 0.0
15/09:30am 27.3 21.8 11.7 37 8.9 E 32 41 17 22 1017.0 1016.8 0.0
15/09:00am 26.6 22.0 11.1 38 8.8 E 26 35 14 19 1017.0 1016.8 0.0
15/08:30am 26.1 22.3 11.1 39 8.5 E 22 32 12 17 1016.9 1016.7 0.0
15/08:00am 24.6 22.5 11.2 43 7.5 E 13 17 7 9 1016.8 1016.6 0.0
15/07:30am 22.8 21.9 11.2 48 6.5 ESE 7 9 4 5 1016.7 1016.5 0.0
15/07:00am 21.1 20.0 10.6 51 5.7 ESE 7 9 4 5 1016.7 1016.5 0.0
15/06:30am 20.9 19.6 10.1 50 5.8 ESE 7 9 4 5 1016.2 1016.0 0.0
15/06:00am 21.7 20.0 9.9 47 6.4 E 9 15 5 8 1016.1 1015.9 0.0
15/05:30am 22.5 20.5 10.0 45 6.8 ESE 11 19 6 10 1015.8 1015.6 0.0
15/05:00am 22.3 20.1 9.5 44 6.9 ESE 11 13 6 7 1015.6 1015.4 0.0
15/04:30am 23.2 20.2 4.2 29 9.3 ESE 9 13 5 7 1015.5 1015.3 0.0
15/04:00am 24.4 20.7 4.2 27 10.0 ESE 13 19 7 10 1015.2 1015.0 0.0
15/03:30am 24.8 20.8 5.1 28 9.9 E 15 22 8 12 1015.0 1014.8 0.0
15/03:00am 24.8 20.8 6.5 31 9.5 ESE 17 28 9 15 1015.1 1014.9 0.0
15/02:30am 25.0 22.1 8.1 34 9.0 E 13 28 7 15 1015.2 1015.0 0.0
15/02:00am 24.8 23.7 10.7 41 7.9 E 7 13 4 7 1015.4 1015.2 0.0
15/01:30am 23.9 25.9 15.9 61 4.8 CALM 0 4 0 2 1015.6 1015.4 0.0
15/01:00am 24.3 26.1 17.5 66 4.2 ESE 4 9 2 5 1015.8 1015.6 0.0
15/12:30am 24.0 25.5 17.7 68 3.9 S 6 9 3 5 1016.1 1015.9 0.0
15/12:00am 24.7 26.1 17.9 66 4.3 ENE 7 9 4 5 1016.2 1016.0 0.0
 
Date/Time
CST
Temp
°C
App
Temp
°C
Dew
Point
°C
Rel
Hum
%
Delta-T
°C
Wind Press
QNH
hPa
Press
MSL
hPa
Rain since
9am
mm
Dir  Spd
km/h
Gust
km/h
Spd
kts
Gust
kts
14/11:30pm 25.5 28.4 18.2 64 4.6 CALM 0 2 0 1 1016.0 1015.8 0.0
14/11:00pm 25.8 27.5 18.0 62 4.9 NNE 6 9 3 5 1016.0 1015.8 0.0
14/10:30pm 26.3 27.0 17.9 60 5.3 NNE 11 20 6 11 1015.8 1015.6 0.0
14/10:00pm 26.9 26.6 17.4 56 6.0 NE 15 20 8 11 1015.4 1015.2 0.0
14/09:30pm 27.7 27.2 16.0 49 7.2 NE 13 24 7 13 1015.1 1014.9 0.0
14/09:00pm 27.9 28.4 16.5 50 7.1 N 9 13 5 7 1014.9 1014.7 0.0
14/08:30pm 28.5 28.6 15.4 45 8.0 NNW 9 13 5 7 1014.5 1014.3 0.0
14/08:00pm 29.2 27.8 13.4 38 9.4 N 13 19 7 10 1014.0 1013.8 0.0
14/07:30pm 29.7 28.3 8.7 27 11.6 SE 6 13 3 7 1013.6 1013.4 0.0
14/07:00pm 30.7 29.0 8.4 25 12.3 ESE 7 11 4 6 1013.1 1012.9 0.0
14/06:30pm 32.0 29.9 8.3 23 13.2 ESE 9 17 5 9 1012.8 1012.6 0.0
14/06:00pm 33.0 30.8 7.8 21 14.0 ESE 9 17 5 9 1012.6 1012.4 0.0
14/05:30pm 33.5 30.5 7.5 20 14.4 ESE 13 20 7 11 1012.4 1012.2 0.0
14/05:00pm 33.8 29.7 7.7 20 14.5 E 19 28 10 15 1012.3 1012.1 0.0
14/04:30pm 34.1 31.4 7.2 19 14.8 ESE 11 17 6 9 1012.3 1012.1 0.0
14/04:00pm 33.8 29.7 6.2 18 15.0 ENE 17 30 9 16 1012.4 1012.2 0.0
14/03:30pm 34.3 29.9 7.4 19 14.9 ESE 20 30 11 16 1012.5 1012.3 0.0
14/03:00pm 33.6 30.0 8.3 21 14.2 SSE 17 37 9 20 1012.7 1012.5 0.0
14/02:30pm 34.2 29.8 7.3 19 14.9 SE 20 35 11 19 1013.1 1012.9 0.0
14/02:00pm 33.9 28.8 7.8 20 14.5 E 24 33 13 18 1013.5 1013.3 0.0
14/01:30pm 33.4 28.6 7.4 20 14.3 ESE 22 39 12 21 1014.2 1014.0 0.0
14/01:00pm 32.5 27.9 6.7 20 14.0 ESE 20 32 11 17 1014.8 1014.6 0.0
14/12:30pm 32.9 28.2 7.7 21 13.9 E 22 35 12 19 1015.7 1015.5 0.0
14/12:00pm 32.3 27.8 8.5 23 13.3 ESE 22 35 12 19 1016.3 1016.1 0.0
14/11:30am 31.5 26.2 8.5 24 12.8 E 26 43 14 23 1016.7 1016.5 0.0
14/11:00am 30.8 25.1 8.5 25 12.4 E 28 41 15 22 1017.0 1016.8 0.0
14/10:30am 30.6 24.3 8.9 26 12.1 E 32 50 17 27 1017.5 1017.3 0.0
14/10:08am 30.1 23.6 9.1 27 11.7 E 33 52 18 28 1017.9 1017.7 0.0
14/10:00am 30.1 23.3 9.1 27 11.7 E 35 52 19 28 1018.0 1017.8 0.0
14/09:48am 29.2 23.2 8.8 28 11.3 E 30 48 16 26 1018.1 1017.9 0.0
14/09:30am 28.7 24.2 9.9 31 10.5 E 24 35 13 19 1018.2 1018.0 0.0
14/09:00am 27.3 23.9 10.5 35 9.4 E 19 30 10 16 1018.2 1018.0 0.0
14/08:30am 25.9 23.6 11.6 40 8.1 E 15 24 8 13 1018.1 1017.9 0.0
14/08:00am 24.3 23.7 12.3 47 6.9 ENE 7 11 4 6 1018.0 1017.8 0.0
14/07:30am 22.2 23.0 12.5 54 5.5 CALM 0 0 0 0 1017.7 1017.5 0.0
14/07:00am 19.9 19.3 11.7 59 4.5 ESE 6 9 3 5 1017.5 1017.3 0.0
14/06:30am 20.5 20.9 11.4 56 5.0 CALM 0 0 0 0 1017.2 1017.0 0.0
14/06:00am 20.8 20.3 10.9 53 5.4 ESE 4 7 2 4 1016.9 1016.7 0.0
14/05:30am 21.9 21.3 10.4 48 6.3 E 4 9 2 5 1016.7 1016.5 0.0
14/05:00am 23.2 20.9 10.6 45 7.0 E 13 22 7 12 1016.6 1016.4 0.0
14/04:30am 23.3 21.2 11.0 46 6.8 ESE 13 17 7 9 1016.3 1016.1 0.0
14/04:00am 23.5 21.1 11.5 47 6.7 ESE 15 24 8 13 1016.1 1015.9 0.0
14/03:30am 23.2 21.6 11.6 48 6.5 ESE 11 15 6 8 1016.3 1016.1 0.0
14/03:00am 23.8 22.0 10.8 44 7.2 ESE 11 17 6 9 1016.3 1016.1 0.0
14/02:30am 24.4 21.4 9.2 38 8.2 ESE 15 24 8 13 1016.3 1016.1 0.0
14/02:00am 24.4 21.3 7.1 33 9.0 ESE 13 19 7 10 1016.5 1016.3 0.0
14/01:30am 24.9 21.8 7.1 32 9.3 ESE 13 20 7 11 1016.5 1016.3 0.0
14/01:00am 25.1 21.9 6.8 31 9.6 ESE 13 17 7 9 1016.4 1016.2 0.0
14/12:30am 24.4 21.8 9.2 38 8.2 ESE 13 17 7 9 1016.5 1016.3 0.0
14/12:00am 22.9 23.4 15.5 63 4.4 ENE 7 11 4 6 1016.6 1016.4 0.0
 
Date/Time
CST
Temp
°C
App
Temp
°C
Dew
Point
°C
Rel
Hum
%
Delta-T
°C
Wind Press
QNH
hPa
Press
MSL
hPa
Rain since
9am
mm
Dir  Spd
km/h
Gust
km/h
Spd
kts
Gust
kts
13/11:30pm 23.3 24.0 15.6 62 4.6 N 6 9 3 5 1016.6 1016.4 0.0
13/11:00pm 24.2 24.5 15.9 59 5.0 NNW 9 13 5 7 1016.6 1016.4 0.0
13/10:30pm 25.3 25.1 15.6 55 5.9 N 11 17 6 9 1016.5 1016.3 0.0
13/10:00pm 26.1 25.9 12.9 44 7.7 WNW 6 7 3 4 1016.5 1016.3 0.0
13/09:30pm 27.3 25.3 8.7 31 10.1 NE 9 13 5 7 1016.2 1016.0 0.0
13/09:00pm 27.7 25.3 7.0 27 11.0 SE 9 13 5 7 1015.7 1015.5 0.0
13/08:30pm 28.1 25.5 6.2 25 11.5 SE 9 13 5 7 1015.2 1015.0 0.0
13/08:00pm 28.6 26.0 6.1 24 11.8 ESE 9 11 5 6 1014.9 1014.7 0.0
13/07:30pm 29.6 26.7 6.3 23 12.4 ESE 11 15 6 8 1014.6 1014.4 0.0
13/07:00pm 30.7 28.2 6.6 22 12.9 ESE 9 13 5 7 1014.1 1013.9 0.0
13/06:30pm 31.7 29.1 6.0 20 13.7 ESE 9 13 5 7 1013.4 1013.2 0.0
13/06:00pm 32.9 29.8 5.5 18 14.6 SE 11 20 6 11 1013.1 1012.9 0.0
13/05:30pm 33.5 30.1 5.9 18 14.9 ESE 13 24 7 13 1012.9 1012.7 0.0
13/05:00pm 34.1 30.8 6.4 18 15.1 SSE 13 24 7 13 1012.9 1012.7 0.0
13/04:30pm 34.2 30.5 6.5 18 15.1 SE 15 28 8 15 1012.8 1012.6 0.0
13/04:00pm 33.8 30.4 7.7 20 14.5 ESE 15 24 8 13 1012.8 1012.6 0.0
13/03:30pm 33.5 30.2 8.2 21 14.1 SSE 15 24 8 13 1013.0 1012.8 0.0
13/03:00pm 33.4 28.8 8.1 21 14.1 E 22 30 12 16 1013.4 1013.2 0.0
13/02:30pm 33.3 30.5 8.7 22 13.8 E 13 30 7 16 1013.9 1013.7 0.0
13/02:00pm 32.5 28.3 7.4 21 13.8 ESE 19 37 10 20 1014.5 1014.3 0.0
13/01:30pm 32.4 28.9 8.6 23 13.3 ESE 17 28 9 15 1015.0 1014.8 0.0
13/01:00pm 32.0 27.4 8.3 23 13.2 ESE 22 39 12 21 1015.7 1015.5 0.0
13/12:30pm 32.1 28.1 9.0 24 13.0 E 20 30 11 16 1016.2 1016.0 0.0
13/12:00pm 31.0 26.7 9.3 26 12.2 ESE 22 37 12 20 1017.0 1016.8 0.0
13/11:30am 30.7 25.4 8.4 25 12.3 E 26 43 14 23 1017.5 1017.3 0.0
13/11:00am 30.1 24.9 7.3 24 12.3 ENE 24 39 13 21 1018.0 1017.8 0.0
13/10:30am 29.1 23.1 7.1 25 11.8 E 28 41 15 22 1018.7 1018.5 0.0
13/10:00am 29.0 23.5 7.6 26 11.6 E 26 37 14 20 1018.9 1018.7 0.0

Other formats

Comma delimited format used in spreadsheet applications
http://www.bom.gov.au/fwo/IDD60801/IDD60801.94137.axf

JavaScript Object Notation format (JSON) in row-major order
http://www.bom.gov.au/fwo/IDD60801/IDD60801.94137.json

Data quality

Most of these data are generated automatically and are frequently updated. Quality checks on data are not normally performed. It is possible for incorrect values to appear. Refer to information at About Latest Weather Observations and please check the disclaimer before using these data.